Time;durP1;ratioP1;P1;durP2;ratioP2;P2;SDS_P1;SDS_P2;PMS_P1;PMS_P2;Temp;Humidity;BMP_temperature;BMP_pressure;BME280_temperature;BME280_humidity;BME280_pressure;Samples;Min_cycle;Max_cycle;Signal;HPM_P1;HPM_P2
2022/03/22 00:00:39;;;;;;;42.70;31.08;;;;;;;;;;5031412;28;20428;-67
2022/03/22 00:03:05;;;;;;;43.67;32.22;;;;;;;;;;4991851;28;20528;-69
2022/03/22 00:05:32;;;;;;;45.63;33.15;;;;;;;;;;5001288;28;20434;-68
2022/03/22 00:08:00;;;;;;;45.72;32.88;;;;;;;;;;5002962;28;20420;-68
2022/03/22 00:10:28;;;;;;;44.28;32.90;;;;;;;;;;4999788;28;20441;-69
2022/03/22 00:12:54;;;;;;;46.03;33.22;;;;;;;;;;5037135;28;21073;-67
2022/03/22 00:15:21;;;;;;;45.78;32.95;;;;;;;;;;5007248;28;20428;-67
2022/03/22 00:17:47;;;;;;;45.90;32.53;;;;;;;;;;4997118;28;20478;-68
2022/03/22 00:20:15;;;;;;;45.70;33.67;;;;;;;;;;5012350;28;20483;-68
2022/03/22 00:22:41;;;;;;;46.05;33.70;;;;;;;;;;4991085;28;20472;-68
2022/03/22 00:25:08;;;;;;;46.47;33.37;;;;;;;;;;5008412;28;20592;-68
2022/03/22 00:27:51;;;;;;;49.08;33.70;;;;;;;;;;4999838;28;20444;-68
2022/03/22 00:30:26;;;;;;;45.90;33.20;;;7.20;99.90;;;;;;5013107;28;20947;-68
2022/03/22 00:32:54;;;;;;;49.70;34.17;;;;;;;;;;5011616;28;20821;-68
2022/03/22 00:35:24;;;;;;;50.55;34.95;;;;;;;;;;5005893;28;20512;-68
2022/03/22 00:37:53;;;;;;;45.13;33.58;;;;;;;;;;4979775;28;20420;-68
2022/03/22 00:40:19;;;;;;;49.22;34.70;;;;;;;;;;5010899;28;20453;-68
2022/03/22 00:42:47;;;;;;;51.60;35.53;;;6.70;99.90;;;;;;5007041;28;20571;-67
2022/03/22 00:45:16;;;;;;;47.95;35.45;;;;;;;;;;5041986;27;20998;-68
2022/03/22 00:47:43;;;;;;;47.80;33.80;;;;;;;;;;5001188;28;20424;-68
2022/03/22 00:50:09;;;;;;;47.55;35.15;;;;;;;;;;5002575;28;20456;-68
2022/03/22 00:52:36;;;;;;;52.70;36.88;;;;;;;;;;5007074;28;20429;-68
2022/03/22 00:55:05;;;;;;;48.78;34.17;;;;;;;;;;4993744;28;20469;-68
2022/03/22 00:57:33;;;;;;;48.20;34.40;;;;;;;;;;4992353;28;20428;-68
2022/03/22 01:00:02;;;;;;;45.60;33.47;;;;;;;;;;4990193;28;20523;-68
2022/03/22 01:02:29;;;;;;;48.85;34.33;;;;;;;;;;4995532;28;20433;-68
2022/03/22 01:04:57;;;;;;;48.30;33.50;;;6.60;99.90;;;;;;4996907;28;20427;-68
2022/03/22 01:07:23;;;;;;;47.47;34.70;;;6.80;99.90;;;;;;5003223;28;20454;-68
2022/03/22 01:09:50;;;;;;;54.72;36.50;;;;;;;;;;4985077;28;20423;-68
2022/03/22 01:12:16;;;;;;;48.80;34.97;;;;;;;;;;5013973;28;20481;-68
2022/03/22 01:14:42;;;;;;;50.05;36.55;;;;;;;;;;5005902;28;20435;-68
2022/03/22 01:17:09;;;;;;;47.00;34.75;;;;;;;;;;5000406;28;20425;-68
2022/03/22 01:19:35;;;;;;;51.35;36.10;;;;;;;;;;5003812;28;20486;-68
2022/03/22 01:22:05;;;;;;;47.35;34.35;;;;;;;;;;5000208;28;20439;-68
2022/03/22 01:24:32;;;;;;;49.85;35.70;;;;;;;;;;5004060;28;20444;-67
2022/03/22 01:26:58;;;;;;;50.88;35.65;;;;;;;;;;5003093;28;20432;-67
2022/03/22 01:29:24;;;;;;;48.00;34.13;;;;;;;;;;5006997;28;20481;-68
2022/03/22 01:31:50;;;;;;;51.50;35.30;;;;;;;;;;4999812;28;20440;-68
2022/03/22 01:34:16;;;;;;;45.92;34.25;;;;;;;;;;4986858;28;20426;-68
2022/03/22 01:36:43;;;;;;;48.90;36.10;;;;;;;;;;5032865;28;20919;-68
2022/03/22 01:39:09;;;;;;;46.95;34.60;;;;;;;;;;4996011;28;20479;-68
2022/03/22 01:41:35;;;;;;;49.03;35.95;;;;;;;;;;4989653;28;20442;-67
2022/03/22 01:44:01;;;;;;;50.10;36.53;;;;;;;;;;5000542;28;20417;-68
2022/03/22 01:46:27;;;;;;;51.60;35.47;;;;;;;;;;5002999;28;20447;-67
2022/03/22 01:48:54;;;;;;;51.15;35.10;;;;;;;;;;4986800;28;20823;-67
2022/03/22 01:51:22;;;;;;;50.20;35.72;;;;;;;;;;4987271;28;20441;-68
2022/03/22 01:53:51;;;;;;;50.25;36.22;;;;;;;;;;5032803;28;20535;-68
2022/03/22 01:56:17;;;;;;;51.33;36.97;;;;;;;;;;5011498;28;20433;-68
2022/03/22 01:58:43;;;;;;;51.13;35.75;;;;;;;;;;4998654;28;20965;-68
2022/03/22 02:06:41;;;;;;;51.63;36.67;;;6.50;99.90;;;;;;5009437;28;20477;-68
2022/03/22 02:09:07;;;;;;;52.93;37.90;;;;;;;;;;4999111;28;20421;-67
2022/03/22 02:11:34;;;;;;;51.60;36.63;;;;;;;;;;4996562;28;20452;-67
2022/03/22 02:14:00;;;;;;;53.85;37.70;;;;;;;;;;5022965;28;20428;-67
2022/03/22 02:16:27;;;;;;;52.65;37.25;;;;;;;;;;4982700;28;20441;-67
2022/03/22 02:18:54;;;;;;;48.97;37.28;;;;;;;;;;4996736;28;20433;-68
2022/03/22 02:21:21;;;;;;;49.80;36.60;;;;;;;;;;5007015;28;20441;-68
2022/03/22 02:23:51;;;;;;;51.47;37.08;;;;;;;;;;5007589;28;20461;-68
2022/03/22 02:26:21;;;;;;;53.17;36.10;;;;;;;;;;5007803;28;20459;-68
2022/03/22 02:28:52;;;;;;;50.55;35.35;;;;;;;;;;4998654;28;21021;-67
2022/03/22 02:31:19;;;;;;;52.67;36.22;;;;;;;;;;4990890;28;20439;-67
2022/03/22 02:33:45;;;;;;;53.78;37.90;;;;;;;;;;4994301;28;20434;-68
2022/03/22 02:36:11;;;;;;;57.03;38.33;;;;;;;;;;4999670;28;20459;-68
2022/03/22 02:38:38;;;;;;;53.47;38.53;;;;;;;;;;5004881;28;20493;-68
2022/03/22 02:41:06;;;;;;;56.05;39.03;;;;;;;;;;5005994;28;20430;-67
2022/03/22 02:43:38;;;;;;;52.17;38.88;;;;;;;;;;4989966;28;20944;-68
2022/03/22 02:46:04;;;;;;;56.90;39.88;;;;;;;;;;5026471;28;20432;-67
2022/03/22 02:48:30;;;;;;;53.13;38.33;;;;;;;;;;4999792;28;20504;-67
2022/03/22 02:50:56;;;;;;;53.72;37.55;;;;;;;;;;4994484;28;20433;-68
2022/03/22 02:53:22;;;;;;;52.80;37.67;;;;;;;;;;5008529;28;20429;-68
2022/03/22 02:55:48;;;;;;;53.83;38.60;;;;;;;;;;5009087;28;20451;-68
2022/03/22 02:58:15;;;;;;;52.65;38.35;;;;;;;;;;5004905;28;20452;-67
2022/03/22 03:00:41;;;;;;;51.28;37.03;;;;;;;;;;5000601;28;20512;-68
2022/03/22 03:03:07;;;;;;;53.63;37.72;;;;;;;;;;5008142;28;20460;-68
2022/03/22 03:05:33;;;;;;;54.03;38.15;;;;;;;;;;5010281;28;20437;-68
2022/03/22 03:08:00;;;;;;;54.65;38.53;;;;;;;;;;4997772;28;20421;-68
2022/03/22 03:10:26;;;;;;;57.22;40.05;;;;;;;;;;5001150;28;20447;-68
2022/03/22 03:13:02;;;;;;;51.15;36.88;;;;;;;;;;4988203;28;20490;-67
2022/03/22 03:15:28;;;;;;;53.80;37.23;;;;;;;;;;5030059;28;20452;-67
2022/03/22 03:17:55;;;;;;;57.30;40.17;;;;;;;;;;4997920;28;21006;-68
2022/03/22 03:20:21;;;;;;;54.55;37.80;;;;;;;;;;5009615;28;20437;-67
2022/03/22 03:22:47;;;;;;;55.58;39.17;;;5.70;99.90;;;;;;5006426;28;20441;-67
2022/03/22 03:25:13;;;;;;;55.35;39.08;;;;;;;;;;5003071;28;20436;-68
2022/03/22 03:27:39;;;;;;;57.97;40.10;;;;;;;;;;5016835;28;20425;-67
2022/03/22 03:30:07;;;;;;;59.03;40.22;;;;;;;;;;5000685;28;20438;-68
2022/03/22 03:32:33;;;;;;;55.60;40.57;;;;;;;;;;5004752;28;20428;-68
2022/03/22 03:34:59;;;;;;;54.38;38.35;;;5.70;99.90;;;;;;5013812;28;20834;-68
2022/03/22 03:37:28;;;;;;;55.00;38.95;;;;;;;;;;4998270;28;20433;-67
2022/03/22 03:39:54;;;;;;;53.03;38.17;;;;;;;;;;5014574;28;20420;-66
2022/03/22 03:42:20;;;;;;;54.63;38.33;;;;;;;;;;5012226;28;20448;-68
2022/03/22 03:47:34;;;;;;;54.00;38.87;;;;;;;;;;5025984;28;20471;-67
2022/03/22 03:50:01;;;;;;;58.05;38.97;;;;;;;;;;5005025;28;20425;-67
2022/03/22 03:52:32;;;;;;;53.42;38.50;;;;;;;;;;5007791;28;20431;-68
2022/03/22 03:54:58;;;;;;;54.38;38.58;;;;;;;;;;4998592;28;20920;-68
2022/03/22 03:57:25;;;;;;;56.30;38.03;;;;;;;;;;4977842;28;20440;-68
2022/03/22 03:59:52;;;;;;;57.75;40.08;;;;;;;;;;5014199;28;20788;-68
2022/03/22 04:02:19;;;;;;;53.17;38.90;;;;;;;;;;5009839;28;20451;-68
2022/03/22 04:04:51;;;;;;;54.17;39.60;;;;;;;;;;5011544;28;20429;-68
2022/03/22 04:07:19;;;;;;;53.13;38.00;;;;;;;;;;4988667;28;20438;-68
2022/03/22 04:09:47;;;;;;;53.58;37.08;;;;;;;;;;5006426;28;20432;-68
2022/03/22 04:12:13;;;;;;;56.03;39.92;;;5.40;99.90;;;;;;5014444;28;20429;-68
2022/03/22 04:14:39;;;;;;;56.97;40.22;;;;;;;;;;5011125;28;20421;-68
2022/03/22 04:17:09;;;;;;;55.40;39.17;;;;;;;;;;4994511;28;20432;-68
2022/03/22 04:19:36;;;;;;;56.25;39.42;;;;;;;;;;5010726;28;20436;-68
2022/03/22 04:22:03;;;;;;;54.47;39.20;;;;;;;;;;5007308;28;20508;-68
2022/03/22 04:24:29;;;;;;;56.55;39.70;;;;;;;;;;4997770;28;20428;-68
2022/03/22 04:32:41;;;;;;;56.67;40.28;;;;;;;;;;4994916;28;20434;-67
2022/03/22 04:32:44;;;;;;;57.13;39.20;;;;;;;;;;5012213;28;20432;-68
2022/03/22 04:35:10;;;;;;;53.88;37.78;;;;;;;;;;5000648;28;20518;-68
2022/03/22 04:37:37;;;;;;;53.28;37.22;;;;;;;;;;5000764;28;20505;-68
2022/03/22 04:40:04;;;;;;;53.97;38.03;;;;;;;;;;4990840;28;20436;-68
2022/03/22 04:42:30;;;;;;;54.45;37.83;;;;;;;;;;4991919;28;20421;-68
2022/03/22 04:44:56;;;;;;;51.03;36.47;;;5.50;99.90;;;;;;5006343;28;20443;-68
2022/03/22 04:47:26;;;;;;;54.67;38.28;;;;;;;;;;5030097;28;20438;-68
2022/03/22 04:49:52;;;;;;;54.67;37.95;;;;;;;;;;5010733;28;20447;-67
2022/03/22 04:57:49;;;;;;;54.80;38.42;;;;;;;;;;5027894;28;20453;-66
2022/03/22 05:00:15;;;;;;;52.30;36.00;;;;;;;;;;5013035;28;20453;-67
2022/03/22 05:02:41;;;;;;;57.00;38.83;;;;;;;;;;5003197;28;20482;-66
2022/03/22 05:05:07;;;;;;;56.15;38.30;;;;;;;;;;4987520;28;20433;-67
2022/03/22 05:07:33;;;;;;;51.33;37.88;;;;;;;;;;4987555;28;20426;-68
2022/03/22 05:09:59;;;;;;;52.45;37.92;;;;;;;;;;4989005;28;20442;-68
2022/03/22 05:12:26;;;;;;;52.00;37.10;;;;;;;;;;4992841;28;20439;-67
2022/03/22 05:14:52;;;;;;;52.33;36.90;;;;;;;;;;5001503;28;20894;-67
2022/03/22 05:17:23;;;;;;;56.45;39.40;;;;;;;;;;5004020;28;21403;-68
2022/03/22 05:19:50;;;;;;;55.08;39.88;;;;;;;;;;4992416;28;20489;-68
2022/03/22 05:22:17;;;;;;;53.47;38.30;;;;;;;;;;5009445;28;20506;-67
2022/03/22 05:24:43;;;;;;;54.85;38.80;;;;;;;;;;5006472;28;20437;-68
2022/03/22 05:27:09;;;;;;;51.63;37.17;;;;;;;;;;5002380;28;20436;-68
2022/03/22 05:29:36;;;;;;;54.17;38.03;;;;;;;;;;4991828;28;20457;-68
2022/03/22 05:32:02;;;;;;;54.43;38.63;;;;;;;;;;5009834;28;20482;-69
2022/03/22 05:34:28;;;;;;;52.58;39.05;;;;;;;;;;4985562;28;20531;-68
2022/03/22 05:36:54;;;;;;;51.83;36.35;;;;;;;;;;5001210;28;20488;-68
2022/03/22 05:39:20;;;;;;;52.58;37.10;;;;;;;;;;5003188;28;20616;-68
2022/03/22 05:41:47;;;;;;;51.70;36.72;;;;;;;;;;5012826;28;20432;-67
2022/03/22 05:44:13;;;;;;;58.55;40.75;;;;;;;;;;4994439;28;20501;-68
2022/03/22 05:46:42;;;;;;;54.65;39.45;;;;;;;;;;5007002;28;20506;-68
2022/03/22 05:49:09;;;;;;;56.20;40.30;;;;;;;;;;4999242;28;20466;-68
2022/03/22 05:51:36;;;;;;;58.85;41.50;;;;;;;;;;5002550;28;20432;-68
2022/03/22 05:54:03;;;;;;;59.53;39.97;;;;;;;;;;4999059;28;20438;-68
2022/03/22 05:56:29;;;;;;;56.33;40.50;;;;;;;;;;4998590;28;20433;-67
2022/03/22 05:58:58;;;;;;;54.05;38.40;;;;;;;;;;5009785;28;20448;-68
2022/03/22 06:01:24;;;;;;;56.92;38.92;;;;;;;;;;5007133;28;20653;-68
2022/03/22 06:03:51;;;;;;;55.13;39.90;;;;;;;;;;4976792;28;20439;-68
2022/03/22 06:06:17;;;;;;;61.72;41.78;;;;;;;;;;5013037;28;20434;-68
2022/03/22 06:08:44;;;;;;;63.05;42.67;;;;;;;;;;5004878;28;20967;-68
2022/03/22 06:11:10;;;;;;;57.30;40.15;;;;;;;;;;4992474;28;20433;-68
2022/03/22 06:13:37;;;;;;;57.90;39.75;;;;;;;;;;5000879;28;20438;-69
2022/03/22 06:16:05;;;;;;;56.80;40.75;;;;;;;;;;5007728;28;20421;-68
2022/03/22 06:18:32;;;;;;;55.97;39.83;;;;;;;;;;5020206;28;20433;-68
2022/03/22 06:20:58;;;;;;;57.78;40.55;;;;;;;;;;4998785;28;20425;-68
2022/03/22 06:23:24;;;;;;;58.45;40.33;;;;;;;;;;4998786;28;20448;-68
2022/03/22 06:25:51;;;;;;;59.77;40.80;;;;;;;;;;4990317;28;20459;-68
2022/03/22 06:28:18;;;;;;;54.70;39.67;;;;;;;;;;4991046;28;20427;-69
2022/03/22 06:30:44;;;;;;;56.22;39.92;;;;;;;;;;4998358;28;20479;-68
2022/03/22 06:33:17;;;;;;;53.67;39.78;;;;;;;;;;4994275;28;20442;-68
2022/03/22 06:35:43;;;;;;;57.30;39.05;;;;;;;;;;4991930;28;20443;-68
2022/03/22 06:38:10;;;;;;;57.00;39.77;;;;;;;;;;4995327;28;20514;-69
2022/03/22 06:40:39;;;;;;;56.15;38.80;;;;;;;;;;5009840;28;20520;-68
2022/03/22 06:43:06;;;;;;;54.93;39.20;;;;;;;;;;5007141;28;20492;-69
2022/03/22 06:45:32;;;;;;;56.00;39.08;;;;;;;;;;4984782;28;20448;-68
2022/03/22 06:47:58;;;;;;;53.92;39.17;;;;;;;;;;5001565;28;20449;-69
2022/03/22 06:50:24;;;;;;;52.67;37.45;;;;;;;;;;5017415;28;20439;-69
2022/03/22 06:52:51;;;;;;;53.27;38.03;;;;;;;;;;4992142;28;20928;-69
2022/03/22 06:55:22;;;;;;;55.90;38.40;;;;;;;;;;5005997;28;20444;-69
2022/03/22 06:57:48;;;;;;;55.22;38.00;;;;;;;;;;4994593;28;20818;-69
2022/03/22 07:00:15;;;;;;;54.47;37.60;;;;;;;;;;4996985;28;20457;-70
2022/03/22 07:02:41;;;;;;;48.60;35.63;;;;;;;;;;4999565;28;20441;-68
2022/03/22 07:05:08;;;;;;;54.05;37.30;;;;;;;;;;5010915;28;20439;-69
2022/03/22 07:07:35;;;;;;;50.83;36.92;;;;;;;;;;4992465;28;20457;-69
2022/03/22 07:10:01;;;;;;;53.20;37.00;;;7.00;99.90;;;;;;4984423;28;20527;-69
2022/03/22 07:12:27;;;;;;;55.33;39.13;;;;;;;;;;4996547;28;20440;-69
2022/03/22 07:14:53;;;;;;;48.70;36.30;;;7.50;99.90;;;;;;4988492;28;20439;-69
2022/03/22 07:17:19;;;;;;;50.17;35.10;;;;;;;;;;4994928;28;20448;-69
2022/03/22 07:19:46;;;;;;;50.42;34.45;;;;;;;;;;5001845;28;20641;-69
2022/03/22 07:22:13;;;;;;;47.25;33.00;;;;;;;;;;5005931;28;20459;-69
2022/03/22 07:24:39;;;;;;;47.35;32.40;;;;;;;;;;4999563;28;20494;-69
2022/03/22 07:27:05;;;;;;;44.95;33.75;;;;;;;;;;4994324;28;20428;-69
2022/03/22 07:29:34;;;;;;;45.05;31.05;;;;;;;;;;4997778;28;20435;-69
2022/03/22 07:32:01;;;;;;;43.00;30.17;;;;;;;;;;4986552;28;20773;-69
2022/03/22 07:34:28;;;;;;;46.67;30.90;;;;;;;;;;4990898;28;20430;-68
2022/03/22 07:36:54;;;;;;;45.33;31.85;;;;;;;;;;4992833;28;20443;-69
2022/03/22 07:39:22;;;;;;;42.88;30.40;;;9.10;99.90;;;;;;4998033;28;20480;-69
2022/03/22 07:41:48;;;;;;;45.40;30.92;;;;;;;;;;4993230;28;20449;-69
2022/03/22 07:44:15;;;;;;;43.78;30.70;;;;;;;;;;4988365;28;20432;-69
2022/03/22 07:46:42;;;;;;;44.05;29.60;;;9.30;99.90;;;;;;5029007;28;20436;-69
2022/03/22 07:54:43;;;;;;;46.08;31.27;;;;;;;;;;5022073;28;21139;-69
2022/03/22 07:57:09;;;;;;;40.57;29.70;;;;;;;;;;4999863;28;20536;-69
2022/03/22 07:59:36;;;;;;;44.00;30.75;;;;;;;;;;5003415;28;20512;-68
2022/03/22 08:02:02;;;;;;;43.90;30.13;;;;;;;;;;4994483;28;20477;-68
2022/03/22 08:04:28;;;;;;;43.25;30.75;;;;;;;;;;4989890;28;21202;-69
2022/03/22 08:06:54;;;;;;;43.45;30.40;;;;;;;;;;4995381;28;20454;-68
2022/03/22 08:09:20;;;;;;;42.70;30.27;;;;;;;;;;4999601;28;20430;-68
2022/03/22 08:11:47;;;;;;;42.55;30.92;;;;;;;;;;5008500;28;20444;-69
2022/03/22 08:14:13;;;;;;;40.53;30.38;;;;;;;;;;4988835;28;20434;-69
2022/03/22 08:16:40;;;;;;;40.97;28.58;;;;;;;;;;4989740;28;20465;-69
2022/03/22 08:19:07;;;;;;;42.05;30.30;;;;;;;;;;5002794;28;20430;-68
2022/03/22 08:21:33;;;;;;;39.85;28.55;;;;;;;;;;5002524;28;20443;-68
2022/03/22 08:24:00;;;;;;;42.70;31.83;;;;;;;;;;5018901;28;20474;-69
2022/03/22 08:26:27;;;;;;;43.13;30.05;;;;;;;;;;4984002;28;20433;-69
2022/03/22 08:28:54;;;;;;;43.15;30.35;;;11.10;99.90;;;;;;5007026;28;20440;-69
2022/03/22 08:31:20;;;;;;;43.15;30.02;;;11.30;99.90;;;;;;4982020;28;20830;-69
2022/03/22 08:33:46;;;;;;;40.75;29.40;;;;;;;;;;4998681;28;20465;-69
2022/03/22 08:36:13;;;;;;;41.47;28.92;;;;;;;;;;4999648;28;20438;-69
2022/03/22 08:38:39;;;;;;;41.20;28.33;;;;;;;;;;5017531;28;20431;-69
2022/03/22 08:41:05;;;;;;;40.50;29.40;;;;;;;;;;4991522;28;20559;-69
2022/03/22 08:43:32;;;;;;;39.03;28.48;;;;;;;;;;4996259;28;20579;-69
2022/03/22 08:45:58;;;;;;;42.92;28.60;;;;;;;;;;5032885;28;20417;-68
2022/03/22 08:48:25;;;;;;;38.95;28.13;;;;;;;;;;4999886;28;20429;-69
2022/03/22 08:50:52;;;;;;;40.07;27.90;;;;;;;;;;5002161;28;20570;-68
2022/03/22 08:53:20;;;;;;;37.67;27.60;;;;;;;;;;5035898;28;20425;-69
2022/03/22 08:55:49;;;;;;;38.75;28.13;;;;;;;;;;5003292;28;20440;-69
2022/03/22 08:58:16;;;;;;;40.72;27.35;;;12.80;99.90;;;;;;5002736;28;20432;-68
2022/03/22 09:00:42;;;;;;;38.72;27.80;;;;;;;;;;5007117;28;20520;-70
2022/03/22 09:03:10;;;;;;;39.67;26.50;;;;;;;;;;5003502;28;20427;-69
2022/03/22 09:08:22;;;;;;;38.25;27.13;;;;;;;;;;5003028;28;20717;-71
2022/03/22 09:10:50;;;;;;;36.90;26.17;;;13.50;99.90;;;;;;5006740;28;20441;-68
2022/03/22 09:13:16;;;;;;;36.25;26.05;;;;;;;;;;4986242;28;20456;-69
2022/03/22 09:15:43;;;;;;;36.42;26.50;;;;;;;;;;4978950;28;20450;-69
2022/03/22 09:18:18;;;;;;;35.00;25.67;;;;;;;;;;5005407;28;20428;-69
2022/03/22 09:20:45;;;;;;;32.70;24.80;;;;;;;;;;4996404;28;20436;-69
2022/03/22 09:23:12;;;;;;;37.37;25.47;;;;;;;;;;4998495;28;20486;-70
2022/03/22 09:25:39;;;;;;;33.50;25.05;;;;;;;;;;5005423;28;20432;-70
2022/03/22 09:28:06;;;;;;;35.70;25.23;;;;;;;;;;4996674;28;20553;-69
2022/03/22 09:30:33;;;;;;;36.83;26.45;;;;;;;;;;5001242;28;20925;-69
2022/03/22 09:32:59;;;;;;;37.30;25.38;;;;;;;;;;5005860;28;20791;-69
2022/03/22 09:35:25;;;;;;;33.63;24.73;;;;;;;;;;5002259;28;20425;-72
2022/03/22 09:37:52;;;;;;;36.97;25.40;;;;;;;;;;5007670;28;20428;-69
2022/03/22 09:40:19;;;;;;;36.93;25.53;;;;;;;;;;4990225;28;20622;-70
2022/03/22 09:42:46;;;;;;;33.67;25.30;;;;;;;;;;4986819;28;20425;-70
2022/03/22 09:45:17;;;;;;;31.70;23.98;;;;;;;;;;5001493;28;20441;-70
2022/03/22 09:47:45;;;;;;;35.63;25.03;;;;;;;;;;4999892;28;20469;-71
2022/03/22 09:50:11;;;;;;;34.55;26.00;;;;;;;;;;5003277;28;20421;-69
2022/03/22 09:52:38;;;;;;;33.15;24.95;;;;;;;;;;5011216;28;20428;-70
2022/03/22 09:55:05;;;;;;;36.78;24.80;;;;;;;;;;5008156;28;20430;-70
2022/03/22 09:57:31;;;;;;;36.00;26.13;;;;;;;;;;4985415;28;20433;-70
2022/03/22 09:59:57;;;;;;;32.90;24.93;;;;;;;;;;5001736;28;20434;-69
2022/03/22 10:02:28;;;;;;;37.20;25.85;;;;;;;;;;5006301;28;20441;-69
2022/03/22 10:04:54;;;;;;;34.10;24.77;;;;;;;;;;5001868;28;20453;-69
2022/03/22 10:07:21;;;;;;;33.33;24.57;;;;;;;;;;5003905;28;20520;-70
2022/03/22 10:09:54;;;;;;;33.28;24.48;;;;;;;;;;5005795;28;20424;-70
2022/03/22 10:12:31;;;;;;;65.68;26.35;;;16.80;99.90;;;;;;5011912;28;20445;-69
2022/03/22 10:15:17;;;;;;;33.80;24.20;;;;;;;;;;4995545;28;20470;-69
2022/03/22 10:17:44;;;;;;;34.17;23.85;;;;;;;;;;4995080;28;20432;-70
2022/03/22 10:20:21;;;;;;;33.80;24.05;;;;;;;;;;5004543;28;20444;-68
2022/03/22 10:22:54;;;;;;;32.28;23.67;;;;;;;;;;5002138;28;20457;-70
2022/03/22 10:25:20;;;;;;;33.22;23.67;;;;;;;;;;4990886;28;20494;-70
2022/03/22 10:27:46;;;;;;;30.60;23.50;;;;;;;;;;4999982;28;20440;-70
2022/03/22 10:30:13;;;;;;;32.27;24.07;;;;;;;;;;5001136;28;20455;-70
2022/03/22 10:32:40;;;;;;;31.63;23.42;;;;;;;;;;4985280;28;20484;-69
2022/03/22 10:35:45;;;;;;;30.50;22.40;;;17.40;99.90;;;;;;5005889;28;20417;-69
2022/03/22 10:38:11;;;;;;;30.60;23.13;;;;;;;;;;5010450;28;20435;-69
2022/03/22 10:40:45;;;;;;;33.67;22.83;;;;;;;;;;4977050;28;20433;-69
2022/03/22 10:43:12;;;;;;;28.42;22.27;;;17.60;99.90;;;;;;5023472;28;20442;-70
2022/03/22 10:46:01;;;;;;;31.33;22.35;;;;;;;;;;4992684;28;20494;-70
2022/03/22 10:48:30;;;;;;;31.08;22.38;;;;;;;;;;5006618;28;20448;-70
2022/03/22 10:51:00;;;;;;;31.67;22.13;;;;;;;;;;5010389;28;20467;-73
2022/03/22 10:53:27;;;;;;;32.72;22.77;;;;;;;;;;4993807;28;20427;-69
2022/03/22 10:55:54;;;;;;;33.13;23.10;;;;;;;;;;4998975;28;20432;-69
2022/03/22 10:58:21;;;;;;;31.60;22.83;;;;;;;;;;4989852;28;20807;-68
2022/03/22 11:00:48;;;;;;;31.38;21.27;;;18.10;99.90;;;;;;4996875;28;20429;-69
2022/03/22 11:03:17;;;;;;;29.52;21.92;;;;;;;;;;4995236;28;20497;-70
2022/03/22 11:05:50;;;;;;;30.30;21.75;;;;;;;;;;5022505;28;20437;-70
2022/03/22 11:08:19;;;;;;;29.40;21.15;;;;;;;;;;4999734;28;20519;-70
2022/03/22 11:10:46;;;;;;;30.63;20.75;;;;;;;;;;4997154;28;20473;-70
2022/03/22 11:13:12;;;;;;;33.85;21.35;;;;;;;;;;4999122;28;20485;-71
2022/03/22 11:15:44;;;;;;;31.93;20.63;;;;;;;;;;4996022;28;20430;-71
2022/03/22 11:18:11;;;;;;;29.48;21.27;;;;;;;;;;4986225;28;20436;-70
2022/03/22 11:20:48;;;;;;;28.60;20.90;;;;;;;;;;4986936;28;20426;-70
2022/03/22 11:23:14;;;;;;;29.77;20.10;;;;;;;;;;4982438;28;20424;-70
2022/03/22 11:25:40;;;;;;;30.55;20.60;;;;;;;;;;4984284;28;20421;-70
2022/03/22 11:28:08;;;;;;;34.72;22.20;;;;;;;;;;5007553;28;20453;-70
2022/03/22 11:30:35;;;;;;;28.23;20.63;;;;;;;;;;5006509;28;20948;-70
2022/03/22 11:35:50;;;;;;;31.55;20.67;;;;;;;;;;4971670;28;20517;-71
2022/03/22 11:38:35;;;;;;;28.42;19.90;;;;;;;;;;5000750;28;20436;-70
2022/03/22 11:43:45;;;;;;;28.60;20.45;;;;;;;;;;5002627;28;20431;-71
2022/03/22 11:46:11;;;;;;;29.27;21.23;;;;;;;;;;5024435;28;20440;-71
2022/03/22 11:48:41;;;;;;;29.00;19.43;;;;;;;;;;4997351;28;20850;-70
2022/03/22 11:51:08;;;;;;;29.48;19.95;;;;;;;;;;5029028;28;20434;-71
2022/03/22 11:53:44;;;;;;;30.27;20.23;;;;;;;;;;5012628;28;20452;-70
2022/03/22 11:56:10;;;;;;;26.50;18.98;;;;;;;;;;5002802;28;20452;-71
2022/03/22 11:58:36;;;;;;;29.48;19.83;;;19.00;99.90;;;;;;5005730;28;20425;-71
2022/03/22 12:01:03;;;;;;;28.13;18.57;;;;;;;;;;4991178;28;20535;-71
2022/03/22 12:03:35;;;;;;;26.15;19.15;;;19.90;99.90;;;;;;5004684;28;20454;-71
2022/03/22 12:06:11;;;;;;;26.60;19.48;;;;;;;;;;5035179;28;20456;-73
2022/03/22 12:08:37;;;;;;;29.17;19.25;;;;;;;;;;5009636;28;20432;-71
2022/03/22 12:11:04;;;;;;;26.67;19.13;;;;;;;;;;4992980;28;20442;-72
2022/03/22 12:13:30;;;;;;;28.80;18.05;;;20.20;99.00;;;;;;5019616;28;20434;-72
2022/03/22 12:16:04;;;;;;;57.88;19.95;;;;;;;;;;5013601;28;20454;-71
2022/03/22 12:18:31;;;;;;;28.00;20.73;;;;;;;;;;4996869;28;20439;-71
2022/03/22 12:20:57;;;;;;;26.70;18.30;;;20.10;97.50;;;;;;5010122;28;20433;-71
2022/03/22 12:23:23;;;;;;;24.95;17.65;;;;;;;;;;4991862;28;20449;-71
2022/03/22 12:25:49;;;;;;;26.13;18.23;;;19.90;96.90;;;;;;5009351;28;20431;-71
2022/03/22 12:28:16;;;;;;;27.60;19.02;;;20.20;97.20;;;;;;5004135;28;20472;-73
2022/03/22 12:30:43;;;;;;;27.52;19.40;;;20.20;97.10;;;;;;4968676;28;20923;-71
2022/03/22 12:33:14;;;;;;;29.70;19.92;;;20.40;96.70;;;;;;5003647;28;20440;-73
2022/03/22 12:35:42;;;;;;;26.02;18.88;;;20.70;96.60;;;;;;5016320;28;20538;-72
2022/03/22 12:38:09;;;;;;;27.27;19.42;;;;;;;;;;5007627;28;20437;-72
2022/03/22 12:40:36;;;;;;;26.55;19.40;;;20.80;96.00;;;;;;5033174;28;20519;-72
2022/03/22 12:43:03;;;;;;;27.70;19.27;;;;;;;;;;4997343;28;20451;-72
2022/03/22 12:45:32;;;;;;;25.52;19.80;;;20.10;96.30;;;;;;5003132;28;20438;-72
2022/03/22 12:47:58;;;;;;;60.80;20.15;;;20.30;96.90;;;;;;4994610;28;20456;-72
2022/03/22 12:50:27;;;;;;;66.57;21.38;;;;;;;;;;5005342;28;20422;-72
2022/03/22 12:52:53;;;;;;;34.25;19.30;;;21.00;95.80;;;;;;4993644;28;20429;-72
2022/03/22 12:55:20;;;;;;;28.42;19.48;;;;;;;;;;5010886;28;20448;-70
2022/03/22 12:57:48;;;;;;;30.35;20.98;;;21.30;95.10;;;;;;4993234;28;20438;-72
2022/03/22 13:00:28;;;;;;;33.70;18.88;;;20.60;95.00;;;;;;4992188;28;20495;-72
2022/03/22 13:02:55;;;;;;;37.70;20.57;;;20.90;94.80;;;;;;5002534;28;20431;-71
2022/03/22 13:05:27;;;;;;;29.83;19.30;;;20.80;94.60;;;;;;4981125;28;20508;-72
2022/03/22 13:07:53;;;;;;;27.98;18.98;;;21.20;94.40;;;;;;5032169;28;20469;-72
2022/03/22 13:13:03;;;;;;;27.90;18.83;;;20.80;94.00;;;;;;5018488;28;20425;-73
2022/03/22 13:15:29;;;;;;;26.63;17.65;;;20.90;93.90;;;;;;5002086;28;20450;-72
2022/03/22 13:17:54;;;;;;;27.67;18.38;;;21.30;93.70;;;;;;5014226;28;21229;-72
2022/03/22 13:20:24;;;;;;;26.03;18.53;;;21.50;93.60;;;;;;4986920;28;20484;-72
2022/03/22 13:23:06;;;;;;;28.08;18.55;;;22.00;93.50;;;;;;5000623;28;20436;-72
2022/03/22 13:25:37;;;;;;;26.77;18.08;;;22.10;92.80;;;;;;4999302;28;20443;-73
2022/03/22 13:28:10;;;;;;;25.50;16.40;;;22.60;92.30;;;;;;5002860;28;20425;-72
2022/03/22 13:30:38;;;;;;;25.63;17.60;;;22.50;91.90;;;;;;5029816;28;20448;-72
2022/03/22 13:33:15;;;;;;;26.35;17.33;;;22.20;91.60;;;;;;4996628;28;20485;-72
2022/03/22 13:35:52;;;;;;;27.98;18.23;;;;;;;;;;4990053;28;20427;-72
2022/03/22 13:38:18;;;;;;;26.13;17.93;;;20.80;92.80;;;;;;5012407;28;20533;-73
2022/03/22 13:40:45;;;;;;;25.23;17.40;;;;;;;;;;4986492;28;20485;-71
2022/03/22 13:43:11;;;;;;;26.42;18.05;;;;;;;;;;4999842;28;20459;-71
2022/03/22 13:45:41;;;;;;;25.15;17.88;;;;;;;;;;4993012;28;20783;-71
2022/03/22 13:48:08;;;;;;;29.05;19.00;;;;;;;;;;4994270;28;20478;-74
2022/03/22 13:50:34;;;;;;;28.50;18.73;;;21.30;92.90;;;;;;4996476;28;20442;-73
2022/03/22 13:53:10;;;;;;;27.30;18.97;;;;;;;;;;4992429;28;20469;-73
2022/03/22 13:55:38;;;;;;;27.08;17.33;;;;;;;;;;5029771;28;20736;-72
2022/03/22 13:58:09;;;;;;;28.45;17.17;;;;;;;;;;5003348;28;20780;-72
2022/03/22 14:00:35;;;;;;;24.30;17.48;;;;;;;;;;4978897;28;20429;-69
2022/03/22 14:03:01;;;;;;;25.80;17.33;;;20.40;93.30;;;;;;4991449;28;20437;-72
2022/03/22 14:05:27;;;;;;;26.02;17.83;;;;;;;;;;4978412;28;20938;-71
2022/03/22 14:07:54;;;;;;;27.48;17.73;;;;;;;;;;4992500;28;20431;-71
2022/03/22 14:10:20;;;;;;;31.83;18.33;;;;;;;;;;4987487;28;20427;-71
2022/03/22 14:12:47;;;;;;;24.50;17.13;;;;;;;;;;4993842;28;20817;-71
2022/03/22 14:15:13;;;;;;;26.08;17.35;;;;;;;;;;4995939;28;20441;-71
2022/03/22 14:17:40;;;;;;;25.60;16.43;;;;;;;;;;4989697;28;20445;-71
2022/03/22 14:20:06;;;;;;;23.73;16.48;;;20.40;93.00;;;;;;4994033;28;20445;-71
2022/03/22 14:22:33;;;;;;;23.73;16.15;;;;;;;;;;4997277;28;20551;-71
2022/03/22 14:24:59;;;;;;;28.50;16.73;;;;;;;;;;4977606;28;20436;-72
2022/03/22 14:27:25;;;;;;;24.50;16.08;;;;;;;;;;5003898;28;20421;-71
2022/03/22 14:29:52;;;;;;;22.00;15.13;;;;;;;;;;4999883;28;21239;-72
2022/03/22 14:32:19;;;;;;;21.85;13.77;;;;;;;;;;5006172;28;20429;-70
2022/03/22 14:37:29;;;;;;;25.58;14.88;;;;;;;;;;5007947;28;20913;-71